Pandora, Colorado
Current Conditions -  °F | °C
As of 8:27 AM on Thursday 18 Dec 2014 (Local Time) from KMTJ Reporting Station
Light Snow Light Snow  
Wind Chill: 33°   Ceiling: 200
Heat Index: 33°   Visibility: 1mi
Dew Point: 31°   Wind: 0mph
Humidity: 92%   Direction: NA
Pressure: 30.14"   Gusts: NA
Location:  37.9189°N, 107.878°W
Report Text: KMTJ 181527Z AUTO 00000KT 1SM -SN BR OVC002 01/M01 A3014 RMK AO2 SNB1456 P0001 T00061006
Loading
Personal Weather Stations






























Interactive Weather Map New forecast layout! Learn more

10-Day Weather Forecast

Advertisements
Track Severe Weather on mobile